createdAt,value
2023-07-19T00:01:34.874Z,9.23
2023-07-19T00:04:03.434Z,7.63
2023-07-19T00:06:31.372Z,7.10
2023-07-19T00:09:00.830Z,7.27
2023-07-19T00:11:28.657Z,5.77
2023-07-19T00:13:56.627Z,5.60
2023-07-19T00:16:25.277Z,6.57
2023-07-19T00:18:57.387Z,6.90
2023-07-19T00:21:28.320Z,5.93
2023-07-19T00:23:56.095Z,6.00
2023-07-19T00:26:25.329Z,5.60
2023-07-19T00:28:55.622Z,5.77
2023-07-19T00:31:24.655Z,5.03
2023-07-19T00:33:52.642Z,5.20
2023-07-19T00:36:20.619Z,4.87
2023-07-19T00:38:49.107Z,4.90
2023-07-19T00:41:16.917Z,5.13
2023-07-19T00:43:49.819Z,4.40
2023-07-19T00:46:17.946Z,4.97
2023-07-19T00:48:46.522Z,3.97
2023-07-19T00:51:14.935Z,4.10
2023-07-19T00:53:45.229Z,4.17
2023-07-19T00:56:13.757Z,4.20
2023-07-19T00:58:44.180Z,4.10
2023-07-19T01:01:14.721Z,4.37
2023-07-19T01:03:42.685Z,4.10
2023-07-19T01:06:10.705Z,3.40
2023-07-19T01:08:38.613Z,3.73
2023-07-19T01:11:06.455Z,3.90
2023-07-19T01:13:34.428Z,3.40
2023-07-19T01:16:02.324Z,3.70
2023-07-19T01:18:32.241Z,3.93
2023-07-19T01:21:10.235Z,4.50
2023-07-19T01:23:46.843Z,4.80
2023-07-19T01:26:14.669Z,4.67
2023-07-19T01:28:42.657Z,5.20
2023-07-19T01:31:13.123Z,4.10
2023-07-19T01:33:41.012Z,4.57
2023-07-19T01:36:08.826Z,3.90
2023-07-19T01:38:37.390Z,4.00
2023-07-19T01:41:06.535Z,4.17
2023-07-19T01:43:34.651Z,4.30
2023-07-19T01:46:02.703Z,4.30
2023-07-19T01:48:30.904Z,3.87
2023-07-19T01:50:58.657Z,4.43
2023-07-19T01:53:27.815Z,3.80
2023-07-19T01:55:57.016Z,3.80
2023-07-19T01:58:28.273Z,4.00
2023-07-19T02:00:56.072Z,3.83
2023-07-19T02:03:25.237Z,4.00
2023-07-19T02:06:00.000Z,3.60
2023-07-19T02:08:27.789Z,3.60
2023-07-19T02:10:56.202Z,3.90
2023-07-19T02:13:24.239Z,4.00
2023-07-19T02:15:53.439Z,3.60
2023-07-19T02:18:23.119Z,3.40
2023-07-19T02:20:54.756Z,3.13
2023-07-19T02:23:22.571Z,3.70
2023-07-19T02:25:50.568Z,3.83
2023-07-19T02:28:19.184Z,3.10
2023-07-19T02:30:47.457Z,3.47
2023-07-19T02:33:17.465Z,3.50
2023-07-19T02:35:46.118Z,3.33
2023-07-19T02:38:15.573Z,3.17
2023-07-19T02:40:43.294Z,3.40
2023-07-19T02:43:12.400Z,3.50
2023-07-19T02:45:40.305Z,3.20
2023-07-19T02:48:08.326Z,2.93
2023-07-19T02:50:39.704Z,3.50
2023-07-19T02:53:08.230Z,3.27
2023-07-19T02:55:35.973Z,3.00
2023-07-19T02:58:04.101Z,3.47
2023-07-19T03:00:31.867Z,3.80
2023-07-19T03:02:59.964Z,3.40
2023-07-19T03:05:28.202Z,3.57
2023-07-19T03:07:57.303Z,3.67
2023-07-19T03:10:26.394Z,3.70
2023-07-19T03:12:55.447Z,3.77
2023-07-19T03:15:23.256Z,3.17
2023-07-19T03:17:51.070Z,3.60
2023-07-19T03:20:19.231Z,3.00
2023-07-19T03:22:47.202Z,3.03
2023-07-19T03:25:16.785Z,3.33
2023-07-19T03:27:45.146Z,2.87
2023-07-19T03:30:13.707Z,2.80
2023-07-19T03:32:42.180Z,3.60
2023-07-19T03:38:00.210Z,3.20
2023-07-19T03:40:30.564Z,2.77
2023-07-19T03:42:58.290Z,2.90
2023-07-19T03:45:29.320Z,2.90
2023-07-19T03:47:57.470Z,2.90
2023-07-19T03:50:26.707Z,3.10
2023-07-19T03:52:54.490Z,2.93
2023-07-19T03:55:23.225Z,3.30
2023-07-19T03:57:52.579Z,3.30
2023-07-19T04:00:21.070Z,3.30
2023-07-19T04:02:51.569Z,2.80
2023-07-19T04:05:19.689Z,3.00
2023-07-19T04:07:47.572Z,2.50
2023-07-19T04:10:16.028Z,2.90
2023-07-19T04:12:43.733Z,2.73
2023-07-19T04:15:14.946Z,3.27
2023-07-19T04:17:43.002Z,2.80
2023-07-19T04:20:11.947Z,2.80
2023-07-19T04:22:40.719Z,2.80
2023-07-19T04:27:58.829Z,2.70
2023-07-19T04:30:28.355Z,3.13
2023-07-19T04:32:56.692Z,2.50
2023-07-19T04:35:24.670Z,2.73
2023-07-19T04:37:53.376Z,3.60
2023-07-19T04:40:21.113Z,2.47
2023-07-19T04:42:49.905Z,2.93
2023-07-19T04:45:18.258Z,2.57
2023-07-19T04:47:47.512Z,3.10
2023-07-19T04:50:16.811Z,2.43
2023-07-19T04:52:46.435Z,2.60
2023-07-19T04:55:14.756Z,2.83
2023-07-19T04:57:43.002Z,2.80
2023-07-19T05:00:18.824Z,2.63
2023-07-19T05:02:48.764Z,3.23
2023-07-19T05:05:16.539Z,2.60
2023-07-19T05:07:44.856Z,4.30
2023-07-19T05:10:12.642Z,3.90
2023-07-19T05:12:41.800Z,2.93
2023-07-19T05:15:10.383Z,2.70
2023-07-19T05:17:38.447Z,2.47
2023-07-19T05:20:09.207Z,2.50
2023-07-19T05:22:37.495Z,2.70
2023-07-19T05:25:05.565Z,2.70
2023-07-19T05:27:33.355Z,3.50
2023-07-19T05:30:01.962Z,3.80
2023-07-19T05:32:32.068Z,3.03
2023-07-19T05:35:00.461Z,2.50
2023-07-19T05:37:29.696Z,3.30
2023-07-19T05:39:57.959Z,2.53
2023-07-19T05:42:25.952Z,2.67
2023-07-19T05:44:53.839Z,2.50
2023-07-19T05:47:22.008Z,3.20
2023-07-19T05:49:49.954Z,3.07
2023-07-19T05:52:17.988Z,3.10
2023-07-19T05:54:48.991Z,2.50
2023-07-19T05:57:17.597Z,2.70
2023-07-19T05:59:45.690Z,2.90
2023-07-19T06:02:13.654Z,3.30
2023-07-19T06:04:41.487Z,3.47
2023-07-19T06:07:09.643Z,3.00
2023-07-19T06:09:37.470Z,3.00
2023-07-19T06:12:07.551Z,2.77
2023-07-19T06:14:36.842Z,2.70
2023-07-19T06:17:04.895Z,2.93
2023-07-19T06:19:32.889Z,2.50
2023-07-19T06:22:00.902Z,2.70
2023-07-19T06:24:28.851Z,2.80
2023-07-19T06:26:57.257Z,3.10
2023-07-19T06:29:26.655Z,2.60
2023-07-19T06:31:54.520Z,3.10
2023-07-19T06:34:22.402Z,2.33
2023-07-19T06:36:50.069Z,3.10
2023-07-19T06:39:19.443Z,2.90
2023-07-19T06:41:47.701Z,3.07
2023-07-19T06:44:18.497Z,2.93
2023-07-19T06:46:47.599Z,2.70
2023-07-19T06:49:15.429Z,2.73
2023-07-19T06:51:43.180Z,2.67
2023-07-19T06:54:15.311Z,3.90
2023-07-19T06:56:45.131Z,2.50
2023-07-19T06:59:12.998Z,2.80
2023-07-19T07:01:40.972Z,2.47
2023-07-19T07:04:10.541Z,4.03
2023-07-19T07:06:38.393Z,2.90
2023-07-19T07:09:06.217Z,2.80
2023-07-19T07:11:34.063Z,2.50
2023-07-19T07:14:02.271Z,3.90
2023-07-19T07:16:31.047Z,2.53
2023-07-19T07:18:59.064Z,3.17
2023-07-19T07:21:28.234Z,2.67
2023-07-19T07:23:56.196Z,2.77
2023-07-19T07:26:24.258Z,2.70
2023-07-19T07:28:51.986Z,2.93
2023-07-19T07:31:21.781Z,2.63
2023-07-19T07:33:50.071Z,3.70
2023-07-19T07:36:17.784Z,2.50
2023-07-19T07:38:50.369Z,3.30
2023-07-19T07:41:18.356Z,2.93
2023-07-19T07:43:46.125Z,2.90
2023-07-19T07:46:14.009Z,2.83
2023-07-19T07:48:42.467Z,2.80
2023-07-19T07:51:10.543Z,3.27
2023-07-19T07:53:38.384Z,2.97
2023-07-19T07:56:07.829Z,2.97
2023-07-19T07:58:35.931Z,3.00
2023-07-19T08:01:04.125Z,3.00
2023-07-19T08:03:32.416Z,2.77
2023-07-19T08:06:00.211Z,2.03
2023-07-19T08:08:28.253Z,2.93
2023-07-19T08:10:56.054Z,2.50
2023-07-19T08:13:26.226Z,2.30
2023-07-19T08:15:54.775Z,3.17
2023-07-19T08:18:22.575Z,3.10
2023-07-19T08:20:51.913Z,3.33
2023-07-19T08:23:20.704Z,3.30
2023-07-19T08:25:48.462Z,2.73
2023-07-19T08:28:16.244Z,3.20
2023-07-19T08:30:45.469Z,2.37
2023-07-19T08:33:13.227Z,2.93
2023-07-19T08:35:41.361Z,3.00
2023-07-19T08:38:10.653Z,3.00
2023-07-19T08:40:39.755Z,2.90
2023-07-19T08:43:07.890Z,2.53
2023-07-19T08:45:37.390Z,3.50
2023-07-19T08:48:07.728Z,3.00
2023-07-19T08:50:36.320Z,2.77
2023-07-19T08:53:04.311Z,2.47
2023-07-19T08:55:33.258Z,3.10
2023-07-19T08:58:01.593Z,3.03
2023-07-19T09:00:33.150Z,2.13
2023-07-19T09:03:00.980Z,3.20
2023-07-19T09:05:31.261Z,2.53
2023-07-19T09:08:02.809Z,2.80
2023-07-19T09:10:30.775Z,2.23
2023-07-19T09:12:58.852Z,3.20
2023-07-19T09:15:29.026Z,2.70
2023-07-19T09:17:57.069Z,2.60
2023-07-19T09:20:28.586Z,2.67
2023-07-19T09:22:58.145Z,3.80
2023-07-19T09:25:26.354Z,2.80
2023-07-19T09:27:54.635Z,3.33
2023-07-19T09:30:22.498Z,2.83
2023-07-19T09:32:59.789Z,2.83
2023-07-19T09:35:28.469Z,2.20
2023-07-19T09:37:56.790Z,2.30
2023-07-19T09:40:26.640Z,2.33
2023-07-19T09:42:56.503Z,2.30
2023-07-19T09:45:28.439Z,2.73
2023-07-19T09:47:58.044Z,2.33
2023-07-19T09:50:27.125Z,3.00
2023-07-19T09:52:58.015Z,2.73
2023-07-19T09:55:27.845Z,2.80
2023-07-19T09:57:56.116Z,2.73
2023-07-19T10:00:24.600Z,2.60
2023-07-19T10:02:52.397Z,2.00
2023-07-19T10:05:28.026Z,2.83
2023-07-19T10:07:55.879Z,2.70
2023-07-19T10:10:23.825Z,2.77
2023-07-19T10:12:53.167Z,2.83
2023-07-19T10:15:23.473Z,2.53
2023-07-19T10:18:00.069Z,2.80
2023-07-19T10:20:29.961Z,3.10
2023-07-19T10:22:59.355Z,3.20
2023-07-19T10:25:29.439Z,3.17
2023-07-19T10:28:00.626Z,2.80
2023-07-19T10:30:51.642Z,2.50
2023-07-19T10:33:21.048Z,3.97
2023-07-19T10:35:51.027Z,2.90
2023-07-19T10:38:20.781Z,2.77
2023-07-19T10:40:49.545Z,2.87
2023-07-19T10:43:27.905Z,4.47
2023-07-19T10:46:08.980Z,2.83
2023-07-19T10:48:40.345Z,2.83
2023-07-19T10:51:10.447Z,3.07
2023-07-19T10:53:45.416Z,2.50
2023-07-19T10:56:15.455Z,4.13
2023-07-19T10:58:44.915Z,2.70
2023-07-19T11:01:13.387Z,2.50
2023-07-19T11:03:45.670Z,3.07
2023-07-19T11:06:13.533Z,2.97
2023-07-19T11:08:41.355Z,2.67
2023-07-19T11:11:12.724Z,2.20
2023-07-19T11:13:40.796Z,2.40
2023-07-19T11:16:09.888Z,2.93
2023-07-19T11:18:38.821Z,2.57
2023-07-19T11:21:07.742Z,2.53
2023-07-19T11:23:38.944Z,2.77
2023-07-19T11:26:07.662Z,3.20
2023-07-19T11:28:36.009Z,2.67
2023-07-19T11:31:06.354Z,3.03
2023-07-19T11:33:37.539Z,2.70
2023-07-19T11:36:07.671Z,2.33
2023-07-19T11:38:35.828Z,7.73
2023-07-19T11:41:03.636Z,2.80
2023-07-19T11:43:31.882Z,2.70
2023-07-19T11:46:01.461Z,3.10
2023-07-19T11:48:29.248Z,2.87
2023-07-19T11:50:59.379Z,3.07
2023-07-19T11:53:28.543Z,3.03
2023-07-19T11:56:02.328Z,2.87
2023-07-19T11:58:44.646Z,3.20
2023-07-19T12:01:14.025Z,2.90
2023-07-19T12:03:42.209Z,2.77
2023-07-19T12:06:12.179Z,2.50
2023-07-19T12:08:40.404Z,2.77
2023-07-19T12:11:08.419Z,2.87
2023-07-19T12:13:36.700Z,2.30
2023-07-19T12:16:05.221Z,6.93
2023-07-19T12:18:33.393Z,3.20
2023-07-19T12:21:01.161Z,3.83
2023-07-19T12:23:34.497Z,2.70
2023-07-19T12:26:03.562Z,2.90
2023-07-19T12:28:31.408Z,3.47
2023-07-19T12:30:59.253Z,3.00
2023-07-19T12:33:27.085Z,2.67
2023-07-19T12:35:55.064Z,3.60
2023-07-19T12:38:22.832Z,3.90
2023-07-19T12:40:52.399Z,3.00
2023-07-19T12:43:20.525Z,2.97
2023-07-19T12:45:48.481Z,3.17
2023-07-19T12:48:16.405Z,3.00
2023-07-19T12:50:44.205Z,2.97
2023-07-19T12:53:11.958Z,3.67
2023-07-19T12:55:40.172Z,4.07
2023-07-19T12:58:09.386Z,4.53
2023-07-19T13:00:38.042Z,3.63
2023-07-19T13:03:06.084Z,3.17
2023-07-19T13:05:34.379Z,2.93
2023-07-19T13:08:02.168Z,2.53
2023-07-19T13:10:30.366Z,3.30
2023-07-19T13:12:58.134Z,2.73
2023-07-19T13:15:27.942Z,3.10
2023-07-19T13:17:56.428Z,3.30
2023-07-19T13:20:24.793Z,3.90
2023-07-19T13:22:52.871Z,3.00
2023-07-19T13:25:21.021Z,2.50
2023-07-19T13:27:48.730Z,2.63
2023-07-19T13:30:16.673Z,2.93
2023-07-19T13:32:46.074Z,2.80
2023-07-19T13:35:53.790Z,2.93
2023-07-19T13:40:33.219Z,3.20
2023-07-19T13:43:01.722Z,3.50
2023-07-19T13:45:29.732Z,3.27
2023-07-19T13:47:58.977Z,2.97
2023-07-19T13:50:26.750Z,3.70
2023-07-19T13:52:55.055Z,4.60
2023-07-19T13:55:22.807Z,4.10
2023-07-19T13:57:50.559Z,3.27
2023-07-19T14:00:18.781Z,3.97
2023-07-19T14:02:49.767Z,3.73
2023-07-19T14:05:19.061Z,3.80
2023-07-19T14:07:46.875Z,3.40
2023-07-19T14:10:14.832Z,3.80
2023-07-19T14:12:42.833Z,3.70
2023-07-19T14:15:10.648Z,3.70
2023-07-19T14:17:38.983Z,3.30
2023-07-19T14:20:08.092Z,3.57
2023-07-19T14:22:37.556Z,3.57
2023-07-19T14:25:05.997Z,3.00
2023-07-19T14:27:36.178Z,3.33
2023-07-19T14:30:04.050Z,2.93
2023-07-19T14:32:32.258Z,2.83
2023-07-19T14:35:01.609Z,3.20
2023-07-19T14:37:30.365Z,3.60
2023-07-19T14:40:00.161Z,2.90
2023-07-19T14:42:28.551Z,3.17
2023-07-19T14:44:56.291Z,2.40
2023-07-19T14:47:25.028Z,2.90
2023-07-19T14:49:52.984Z,5.57
2023-07-19T14:52:20.977Z,2.93
2023-07-19T14:54:48.713Z,3.40
2023-07-19T14:57:18.175Z,2.90
2023-07-19T14:59:48.028Z,4.63
2023-07-19T15:05:01.152Z,2.83
2023-07-19T15:07:29.784Z,3.00
2023-07-19T15:09:57.530Z,4.40
2023-07-19T15:12:27.410Z,3.00
2023-07-19T15:14:55.685Z,3.40
2023-07-19T15:17:24.424Z,2.43
2023-07-19T15:19:55.209Z,2.53
2023-07-19T15:22:23.041Z,2.30
2023-07-19T15:24:50.984Z,2.50
2023-07-19T15:27:19.887Z,3.20
2023-07-19T15:29:49.106Z,5.70
2023-07-19T15:32:17.189Z,3.40
2023-07-19T15:34:45.170Z,4.03
2023-07-19T15:37:13.084Z,5.23
2023-07-19T15:39:41.076Z,3.27
2023-07-19T15:42:09.270Z,3.40
2023-07-19T15:44:37.376Z,3.33
2023-07-19T15:47:08.681Z,2.60
2023-07-19T15:49:37.563Z,2.67
2023-07-19T15:52:05.673Z,2.93
2023-07-19T15:54:34.071Z,2.47
2023-07-19T15:57:02.229Z,2.47
2023-07-19T15:59:30.155Z,3.20
2023-07-19T16:01:57.938Z,6.30
2023-07-19T16:04:27.598Z,7.87
2023-07-19T16:06:55.348Z,5.37
2023-07-19T16:09:23.136Z,3.77
2023-07-19T16:11:51.368Z,4.80
2023-07-19T16:14:19.173Z,5.07
2023-07-19T16:16:46.941Z,3.40
2023-07-19T16:19:16.380Z,3.40
2023-07-19T16:21:45.854Z,4.00
2023-07-19T16:24:13.915Z,2.90
2023-07-19T16:26:41.875Z,3.57
2023-07-19T16:29:09.640Z,3.03
2023-07-19T16:31:37.574Z,3.83
2023-07-19T16:34:05.764Z,3.00
2023-07-19T16:36:34.106Z,3.27
2023-07-19T16:39:04.368Z,2.90
2023-07-19T16:41:33.168Z,2.70
2023-07-19T16:44:01.040Z,3.50
2023-07-19T16:46:29.004Z,4.37
2023-07-19T16:48:57.195Z,4.70
2023-07-19T16:51:25.139Z,4.03
2023-07-19T16:53:52.853Z,4.27
2023-07-19T16:56:22.428Z,4.60
2023-07-19T16:58:50.272Z,4.70
2023-07-19T17:01:18.326Z,5.20
2023-07-19T17:03:46.494Z,4.83
2023-07-19T17:06:14.774Z,4.60
2023-07-19T17:08:42.624Z,5.30
2023-07-19T17:11:10.840Z,5.30
2023-07-19T17:13:40.735Z,4.53
2023-07-19T17:16:08.487Z,4.00
2023-07-19T17:18:36.470Z,4.00
2023-07-19T17:21:05.807Z,3.93
2023-07-19T17:23:34.139Z,4.63
2023-07-19T17:26:02.176Z,3.80
2023-07-19T17:28:30.169Z,5.67
2023-07-19T17:31:00.058Z,5.07
2023-07-19T17:33:28.794Z,3.50
2023-07-19T17:35:56.548Z,4.80
2023-07-19T17:38:27.126Z,3.93
2023-07-19T17:40:56.139Z,4.07
2023-07-19T17:43:24.087Z,3.90
2023-07-19T17:45:52.042Z,3.63
2023-07-19T17:48:21.156Z,3.90
2023-07-19T17:50:49.279Z,4.30
2023-07-19T17:53:17.056Z,4.50
2023-07-19T17:55:45.273Z,4.10
2023-07-19T17:58:12.992Z,4.83
2023-07-19T18:00:41.826Z,4.60
2023-07-19T18:03:09.862Z,4.17
2023-07-19T18:05:39.651Z,3.67
2023-07-19T18:08:21.199Z,5.23
2023-07-19T18:10:50.786Z,4.50
2023-07-19T18:13:18.549Z,5.00
2023-07-19T18:15:46.949Z,6.50
2023-07-19T18:18:14.868Z,7.00
2023-07-19T18:20:44.974Z,7.00
2023-07-19T18:23:14.445Z,5.27
2023-07-19T18:25:42.390Z,3.37
2023-07-19T18:28:10.639Z,4.90
2023-07-19T18:30:38.699Z,5.70
2023-07-19T18:33:06.616Z,6.40
2023-07-19T18:35:34.703Z,5.47
2023-07-19T18:38:03.955Z,3.57
2023-07-19T18:40:32.092Z,3.90
2023-07-19T18:43:00.034Z,4.50
2023-07-19T18:45:27.954Z,5.77
2023-07-19T18:47:55.766Z,6.57
2023-07-19T18:50:23.899Z,10.57
2023-07-19T18:52:51.699Z,7.33
2023-07-19T18:55:21.101Z,8.27
2023-07-19T18:57:50.660Z,5.90
2023-07-19T19:00:18.681Z,5.60
2023-07-19T19:02:46.615Z,5.57
2023-07-19T19:05:14.394Z,5.83
2023-07-19T19:07:43.033Z,5.77
2023-07-19T19:10:11.029Z,4.50
2023-07-19T19:12:40.593Z,5.40
2023-07-19T19:15:09.005Z,5.13
2023-07-19T19:17:36.966Z,7.47
2023-07-19T19:20:05.397Z,5.33
2023-07-19T19:22:35.639Z,5.13
2023-07-19T19:25:04.028Z,4.27
2023-07-19T19:27:31.895Z,4.20
2023-07-19T19:30:01.092Z,4.63
2023-07-19T19:32:29.965Z,5.07
2023-07-19T19:34:58.146Z,7.80
2023-07-19T19:37:26.176Z,5.63
2023-07-19T19:39:53.976Z,4.60
2023-07-19T19:42:22.473Z,3.80
2023-07-19T19:44:50.840Z,4.50
2023-07-19T19:47:20.378Z,4.90
2023-07-19T19:49:48.965Z,5.67
2023-07-19T19:52:17.482Z,6.60
2023-07-19T19:54:45.590Z,7.97
2023-07-19T19:57:16.075Z,7.27
2023-07-19T19:59:44.616Z,7.80
2023-07-19T20:04:45.709Z,9.80
2023-07-19T20:07:35.511Z,8.57
2023-07-19T20:12:44.953Z,9.00
2023-07-19T20:15:12.862Z,8.67
2023-07-19T20:17:42.322Z,8.30
2023-07-19T20:22:50.406Z,10.80
2023-07-19T20:25:41.180Z,9.57
2023-07-19T20:28:06.652Z,9.77
2023-07-19T20:30:44.351Z,10.30
2023-07-19T20:33:19.941Z,9.83
2023-07-19T20:43:22.157Z,10.47
2023-07-19T20:45:49.922Z,11.43
2023-07-19T20:48:17.946Z,11.23
2023-07-19T20:50:45.668Z,10.80
2023-07-19T20:53:14.872Z,11.20
2023-07-19T20:55:42.842Z,12.43
2023-07-19T20:58:10.840Z,11.60
2023-07-19T21:00:38.716Z,11.40
2023-07-19T21:03:06.737Z,12.00
2023-07-19T21:05:34.835Z,12.77
2023-07-19T21:08:02.637Z,12.47
2023-07-19T21:10:33.093Z,12.80
2023-07-19T21:13:02.306Z,14.10
2023-07-19T21:15:30.070Z,12.07
2023-07-19T21:17:58.160Z,11.40
2023-07-19T21:20:26.138Z,11.90
2023-07-19T21:22:55.806Z,11.33
2023-07-19T21:25:23.922Z,11.57
2023-07-19T21:27:53.233Z,12.00
2023-07-19T21:30:21.182Z,11.70
2023-07-19T21:32:49.338Z,11.50
2023-07-19T21:35:17.366Z,10.50
2023-07-19T21:37:45.264Z,10.67
2023-07-19T21:40:15.505Z,10.33
2023-07-19T21:42:43.372Z,9.27
2023-07-19T21:45:12.834Z,10.90
2023-07-19T21:47:40.667Z,13.10
2023-07-19T21:50:08.975Z,11.87
2023-07-19T21:52:36.711Z,12.33
2023-07-19T21:55:04.682Z,14.10
2023-07-19T21:57:32.701Z,8.90
2023-07-19T22:00:00.477Z,9.43
2023-07-19T22:02:29.678Z,9.30
2023-07-19T22:04:57.968Z,8.77
2023-07-19T22:07:25.671Z,14.50
2023-07-19T22:09:53.844Z,9.57
2023-07-19T22:12:22.235Z,13.60
2023-07-19T22:15:05.521Z,7.00
2023-07-19T22:17:37.610Z,9.73
2023-07-19T22:20:06.028Z,8.03
2023-07-19T22:22:33.876Z,8.40
2023-07-19T22:25:02.293Z,7.37
2023-07-19T22:27:29.989Z,9.97
2023-07-19T22:29:57.854Z,9.90
2023-07-19T22:32:25.838Z,8.33
2023-07-19T22:34:57.310Z,7.80
2023-07-19T22:37:25.457Z,7.00
2023-07-19T22:39:53.181Z,6.83
2023-07-19T22:42:21.931Z,9.80
2023-07-19T22:44:49.876Z,7.60
2023-07-19T22:47:17.766Z,5.83
2023-07-19T22:49:46.216Z,6.57
2023-07-19T22:52:15.689Z,8.27
2023-07-19T22:54:43.500Z,6.17
2023-07-19T22:57:11.384Z,9.90
2023-07-19T22:59:39.677Z,7.20
2023-07-19T23:02:07.431Z,10.03
2023-07-19T23:04:35.265Z,13.10
2023-07-19T23:07:04.544Z,10.67
2023-07-19T23:09:35.887Z,7.30
2023-07-19T23:12:04.124Z,11.27
2023-07-19T23:14:31.837Z,9.50
2023-07-19T23:16:59.972Z,8.73
2023-07-19T23:19:29.691Z,6.30
2023-07-19T23:21:58.180Z,8.27
2023-07-19T23:24:26.466Z,9.87
2023-07-19T23:26:56.089Z,8.27
2023-07-19T23:29:25.839Z,18.13
2023-07-19T23:31:54.753Z,21.43
2023-07-19T23:34:22.742Z,10.30
2023-07-19T23:36:52.314Z,8.87
2023-07-19T23:39:20.249Z,11.23
2023-07-19T23:41:48.380Z,11.20
2023-07-19T23:44:17.465Z,22.50
2023-07-19T23:46:45.484Z,25.93
2023-07-19T23:49:14.468Z,26.57
2023-07-19T23:51:43.180Z,17.47
2023-07-19T23:54:11.085Z,25.97
2023-07-19T23:56:39.054Z,46.60
2023-07-19T23:59:06.791Z,36.10
